sensor_id;sensor_type;location;lat;lon;timestamp;temperature;humidity
28947;DHT22;16052;50.930;5.326;2023-04-24T00:01:15;10.40;99.90
28947;DHT22;16052;50.930;5.326;2023-04-24T00:03:42;10.50;99.90
28947;DHT22;16052;50.930;5.326;2023-04-24T00:06:08;10.40;99.90
28947;DHT22;16052;50.930;5.326;2023-04-24T00:08:34;10.40;99.90
28947;DHT22;16052;50.930;5.326;2023-04-24T00:11:01;10.40;99.90
28947;DHT22;16052;50.930;5.326;2023-04-24T00:13:27;10.30;99.90
28947;DHT22;16052;50.930;5.326;2023-04-24T00:15:54;10.30;99.90
28947;DHT22;16052;50.930;5.326;2023-04-24T00:18:20;10.40;99.90
28947;DHT22;16052;50.930;5.326;2023-04-24T00:20:46;10.40;99.90
28947;DHT22;16052;50.930;5.326;2023-04-24T00:23:12;10.30;99.90
28947;DHT22;16052;50.930;5.326;2023-04-24T00:25:37;10.30;99.90
28947;DHT22;16052;50.930;5.326;2023-04-24T00:28:03;10.30;99.90
28947;DHT22;16052;50.930;5.326;2023-04-24T00:30:29;10.20;99.90
28947;DHT22;16052;50.930;5.326;2023-04-24T00:32:55;10.20;99.90
28947;DHT22;16052;50.930;5.326;2023-04-24T00:35:21;10.30;99.90
28947;DHT22;16052;50.930;5.326;2023-04-24T00:37:46;10.20;99.90
28947;DHT22;16052;50.930;5.326;2023-04-24T00:40:12;10.20;99.90
28947;DHT22;16052;50.930;5.326;2023-04-24T00:42:40;10.30;99.90
28947;DHT22;16052;50.930;5.326;2023-04-24T00:45:06;10.30;99.90
28947;DHT22;16052;50.930;5.326;2023-04-24T00:47:33;10.30;99.90
28947;DHT22;16052;50.930;5.326;2023-04-24T00:50:04;10.20;99.90
28947;DHT22;16052;50.930;5.326;2023-04-24T00:52:30;10.10;99.90
28947;DHT22;16052;50.930;5.326;2023-04-24T00:54:57;10.20;99.90
28947;DHT22;16052;50.930;5.326;2023-04-24T00:57:23;10.20;99.90
28947;DHT22;16052;50.930;5.326;2023-04-24T00:59:49;10.10;99.90
28947;DHT22;16052;50.930;5.326;2023-04-24T01:02:15;10.10;99.90
28947;DHT22;16052;50.930;5.326;2023-04-24T01:04:41;10.10;99.90
28947;DHT22;16052;50.930;5.326;2023-04-24T01:07:07;10.10;99.90
28947;DHT22;16052;50.930;5.326;2023-04-24T01:09:37;10.10;99.90
28947;DHT22;16052;50.930;5.326;2023-04-24T01:12:04;10.20;99.90
28947;DHT22;16052;50.930;5.326;2023-04-24T01:14:31;10.20;99.90
28947;DHT22;16052;50.930;5.326;2023-04-24T01:16:56;10.20;99.90
28947;DHT22;16052;50.930;5.326;2023-04-24T01:19:23;10.30;99.90
28947;DHT22;16052;50.930;5.326;2023-04-24T01:21:50;10.30;99.90
28947;DHT22;16052;50.930;5.326;2023-04-24T01:24:17;10.20;99.90
28947;DHT22;16052;50.930;5.326;2023-04-24T01:26:45;10.20;99.90
28947;DHT22;16052;50.930;5.326;2023-04-24T01:29:10;10.10;99.90
28947;DHT22;16052;50.930;5.326;2023-04-24T01:31:36;10.00;99.90
28947;DHT22;16052;50.930;5.326;2023-04-24T01:34:03;10.00;99.90
28947;DHT22;16052;50.930;5.326;2023-04-24T01:36:30;10.00;99.90
28947;DHT22;16052;50.930;5.326;2023-04-24T01:38:57;10.10;99.90
28947;DHT22;16052;50.930;5.326;2023-04-24T01:41:23;10.00;99.90
28947;DHT22;16052;50.930;5.326;2023-04-24T01:43:50;10.00;99.90
28947;DHT22;16052;50.930;5.326;2023-04-24T01:46:16;9.90;99.90
28947;DHT22;16052;50.930;5.326;2023-04-24T01:48:42;10.00;99.90
28947;DHT22;16052;50.930;5.326;2023-04-24T01:51:09;10.00;99.90
28947;DHT22;16052;50.930;5.326;2023-04-24T01:53:35;10.00;99.90
28947;DHT22;16052;50.930;5.326;2023-04-24T01:56:01;10.10;99.90
28947;DHT22;16052;50.930;5.326;2023-04-24T01:58:28;10.00;99.90
28947;DHT22;16052;50.930;5.326;2023-04-24T02:00:56;10.00;99.90
28947;DHT22;16052;50.930;5.326;2023-04-24T02:03:25;10.10;99.90
28947;DHT22;16052;50.930;5.326;2023-04-24T02:05:51;10.20;99.90
28947;DHT22;16052;50.930;5.326;2023-04-24T02:08:16;10.10;99.90
28947;DHT22;16052;50.930;5.326;2023-04-24T02:10:43;10.10;99.90
28947;DHT22;16052;50.930;5.326;2023-04-24T02:13:09;10.00;99.90
28947;DHT22;16052;50.930;5.326;2023-04-24T02:15:35;9.90;99.90
28947;DHT22;16052;50.930;5.326;2023-04-24T02:18:01;9.80;99.90
28947;DHT22;16052;50.930;5.326;2023-04-24T02:20:27;9.80;99.90
28947;DHT22;16052;50.930;5.326;2023-04-24T02:22:53;9.80;99.90
28947;DHT22;16052;50.930;5.326;2023-04-24T02:25:19;9.70;99.90
28947;DHT22;16052;50.930;5.326;2023-04-24T02:27:45;9.80;99.90
28947;DHT22;16052;50.930;5.326;2023-04-24T02:30:11;9.80;99.90
28947;DHT22;16052;50.930;5.326;2023-04-24T02:32:37;9.80;99.90
28947;DHT22;16052;50.930;5.326;2023-04-24T02:35:02;9.80;99.90
28947;DHT22;16052;50.930;5.326;2023-04-24T02:37:28;9.80;99.90
28947;DHT22;16052;50.930;5.326;2023-04-24T02:39:54;9.80;99.90
28947;DHT22;16052;50.930;5.326;2023-04-24T02:42:19;9.70;99.90
28947;DHT22;16052;50.930;5.326;2023-04-24T02:44:45;9.60;99.90
28947;DHT22;16052;50.930;5.326;2023-04-24T02:47:12;9.50;99.90
28947;DHT22;16052;50.930;5.326;2023-04-24T02:49:37;9.50;99.90
28947;DHT22;16052;50.930;5.326;2023-04-24T02:52:03;9.60;99.90
28947;DHT22;16052;50.930;5.326;2023-04-24T02:54:29;9.60;99.90
28947;DHT22;16052;50.930;5.326;2023-04-24T02:56:54;9.70;99.90
28947;DHT22;16052;50.930;5.326;2023-04-24T02:59:21;9.60;99.90
28947;DHT22;16052;50.930;5.326;2023-04-24T03:01:46;9.50;99.90
28947;DHT22;16052;50.930;5.326;2023-04-24T03:04:12;9.60;99.90
28947;DHT22;16052;50.930;5.326;2023-04-24T03:06:37;9.60;99.90
28947;DHT22;16052;50.930;5.326;2023-04-24T03:09:04;9.50;99.90
28947;DHT22;16052;50.930;5.326;2023-04-24T03:11:30;9.50;99.90
28947;DHT22;16052;50.930;5.326;2023-04-24T03:13:56;9.50;99.90
28947;DHT22;16052;50.930;5.326;2023-04-24T03:16:21;9.50;99.90
28947;DHT22;16052;50.930;5.326;2023-04-24T03:18:47;9.50;99.90
28947;DHT22;16052;50.930;5.326;2023-04-24T03:21:13;9.40;99.90
28947;DHT22;16052;50.930;5.326;2023-04-24T03:23:38;9.40;99.90
28947;DHT22;16052;50.930;5.326;2023-04-24T03:26:04;9.30;99.90
28947;DHT22;16052;50.930;5.326;2023-04-24T03:28:30;9.30;99.90
28947;DHT22;16052;50.930;5.326;2023-04-24T03:30:55;9.30;99.90
28947;DHT22;16052;50.930;5.326;2023-04-24T03:33:21;9.40;99.90
28947;DHT22;16052;50.930;5.326;2023-04-24T03:35:46;9.40;99.90
28947;DHT22;16052;50.930;5.326;2023-04-24T03:38:12;9.40;99.90
28947;DHT22;16052;50.930;5.326;2023-04-24T03:40:38;9.40;99.90
28947;DHT22;16052;50.930;5.326;2023-04-24T03:43:03;9.30;99.90
28947;DHT22;16052;50.930;5.326;2023-04-24T03:45:29;9.30;99.90
28947;DHT22;16052;50.930;5.326;2023-04-24T03:47:55;9.30;99.90
28947;DHT22;16052;50.930;5.326;2023-04-24T03:50:21;9.30;99.90
28947;DHT22;16052;50.930;5.326;2023-04-24T03:52:46;9.30;99.90
28947;DHT22;16052;50.930;5.326;2023-04-24T03:55:13;9.30;99.90
28947;DHT22;16052;50.930;5.326;2023-04-24T03:57:40;9.30;99.90
28947;DHT22;16052;50.930;5.326;2023-04-24T04:00:06;9.30;99.90
28947;DHT22;16052;50.930;5.326;2023-04-24T04:02:32;9.30;99.90
28947;DHT22;16052;50.930;5.326;2023-04-24T04:04:58;9.30;99.90
28947;DHT22;16052;50.930;5.326;2023-04-24T04:07:23;9.30;99.90
28947;DHT22;16052;50.930;5.326;2023-04-24T04:09:50;9.30;99.90
28947;DHT22;16052;50.930;5.326;2023-04-24T04:12:16;9.30;99.90
28947;DHT22;16052;50.930;5.326;2023-04-24T04:14:42;9.30;99.90
28947;DHT22;16052;50.930;5.326;2023-04-24T04:17:07;9.30;99.90
28947;DHT22;16052;50.930;5.326;2023-04-24T04:19:33;9.30;99.90
28947;DHT22;16052;50.930;5.326;2023-04-24T04:21:59;9.20;99.90
28947;DHT22;16052;50.930;5.326;2023-04-24T04:24:25;9.20;99.90
28947;DHT22;16052;50.930;5.326;2023-04-24T04:26:51;9.10;99.90
28947;DHT22;16052;50.930;5.326;2023-04-24T04:29:18;9.10;99.90
28947;DHT22;16052;50.930;5.326;2023-04-24T04:31:48;9.10;99.90
28947;DHT22;16052;50.930;5.326;2023-04-24T04:34:13;9.10;99.90
28947;DHT22;16052;50.930;5.326;2023-04-24T04:36:40;9.10;99.90
28947;DHT22;16052;50.930;5.326;2023-04-24T04:39:06;9.00;99.90
28947;DHT22;16052;50.930;5.326;2023-04-24T04:41:32;8.90;99.90
28947;DHT22;16052;50.930;5.326;2023-04-24T04:44:01;9.00;99.90
28947;DHT22;16052;50.930;5.326;2023-04-24T04:46:27;9.00;99.90
28947;DHT22;16052;50.930;5.326;2023-04-24T04:48:53;9.00;99.90
28947;DHT22;16052;50.930;5.326;2023-04-24T04:51:19;9.00;99.90
28947;DHT22;16052;50.930;5.326;2023-04-24T04:53:45;9.00;99.90
28947;DHT22;16052;50.930;5.326;2023-04-24T04:56:11;9.00;99.90
28947;DHT22;16052;50.930;5.326;2023-04-24T04:58:37;8.90;99.90
28947;DHT22;16052;50.930;5.326;2023-04-24T05:01:03;8.90;99.90
28947;DHT22;16052;50.930;5.326;2023-04-24T05:03:28;8.80;99.90
28947;DHT22;16052;50.930;5.326;2023-04-24T05:05:54;8.80;99.90
28947;DHT22;16052;50.930;5.326;2023-04-24T05:08:20;8.80;99.90
28947;DHT22;16052;50.930;5.326;2023-04-24T05:10:45;8.90;99.90
28947;DHT22;16052;50.930;5.326;2023-04-24T05:13:11;9.00;99.90
28947;DHT22;16052;50.930;5.326;2023-04-24T05:15:37;9.00;99.90
28947;DHT22;16052;50.930;5.326;2023-04-24T05:18:02;9.00;99.90
28947;DHT22;16052;50.930;5.326;2023-04-24T05:20:32;9.10;99.90
28947;DHT22;16052;50.930;5.326;2023-04-24T05:22:58;9.10;99.90
28947;DHT22;16052;50.930;5.326;2023-04-24T05:25:23;9.20;99.90
28947;DHT22;16052;50.930;5.326;2023-04-24T05:27:49;9.20;99.90
28947;DHT22;16052;50.930;5.326;2023-04-24T05:30:15;9.10;99.90
28947;DHT22;16052;50.930;5.326;2023-04-24T05:32:41;9.20;99.90
28947;DHT22;16052;50.930;5.326;2023-04-24T05:35:06;9.20;99.90
28947;DHT22;16052;50.930;5.326;2023-04-24T05:37:33;9.20;99.90
28947;DHT22;16052;50.930;5.326;2023-04-24T05:39:58;9.20;99.90
28947;DHT22;16052;50.930;5.326;2023-04-24T05:42:24;9.10;99.90
28947;DHT22;16052;50.930;5.326;2023-04-24T05:44:50;9.10;99.90
28947;DHT22;16052;50.930;5.326;2023-04-24T05:47:16;9.00;99.90
28947;DHT22;16052;50.930;5.326;2023-04-24T05:49:41;9.00;99.90
28947;DHT22;16052;50.930;5.326;2023-04-24T05:52:07;9.00;99.90
28947;DHT22;16052;50.930;5.326;2023-04-24T05:54:34;9.00;99.90
28947;DHT22;16052;50.930;5.326;2023-04-24T05:57:00;8.90;99.90
28947;DHT22;16052;50.930;5.326;2023-04-24T05:59:29;8.80;99.90
28947;DHT22;16052;50.930;5.326;2023-04-24T06:01:58;8.80;99.90
28947;DHT22;16052;50.930;5.326;2023-04-24T06:04:24;8.80;99.90
28947;DHT22;16052;50.930;5.326;2023-04-24T06:06:51;8.80;99.90
28947;DHT22;16052;50.930;5.326;2023-04-24T06:09:24;8.80;99.90
28947;DHT22;16052;50.930;5.326;2023-04-24T06:11:50;8.70;99.90
28947;DHT22;16052;50.930;5.326;2023-04-24T06:14:19;8.70;99.90
28947;DHT22;16052;50.930;5.326;2023-04-24T06:16:45;8.70;99.90
28947;DHT22;16052;50.930;5.326;2023-04-24T06:19:11;8.70;99.90
28947;DHT22;16052;50.930;5.326;2023-04-24T06:21:36;8.80;99.90
28947;DHT22;16052;50.930;5.326;2023-04-24T06:24:03;8.80;99.90
28947;DHT22;16052;50.930;5.326;2023-04-24T06:26:30;8.80;99.90
28947;DHT22;16052;50.930;5.326;2023-04-24T06:28:56;8.70;99.90
28947;DHT22;16052;50.930;5.326;2023-04-24T06:31:24;8.70;99.90
28947;DHT22;16052;50.930;5.326;2023-04-24T06:33:50;8.60;99.90
28947;DHT22;16052;50.930;5.326;2023-04-24T06:36:16;8.70;99.90
28947;DHT22;16052;50.930;5.326;2023-04-24T06:38:42;8.60;99.90
28947;DHT22;16052;50.930;5.326;2023-04-24T06:41:09;8.60;99.90
28947;DHT22;16052;50.930;5.326;2023-04-24T06:43:35;8.60;99.90
28947;DHT22;16052;50.930;5.326;2023-04-24T06:46:00;8.60;99.90
28947;DHT22;16052;50.930;5.326;2023-04-24T06:48:27;8.60;99.90
28947;DHT22;16052;50.930;5.326;2023-04-24T06:50:53;8.60;99.90
28947;DHT22;16052;50.930;5.326;2023-04-24T06:53:19;8.60;99.90
28947;DHT22;16052;50.930;5.326;2023-04-24T06:55:44;8.60;99.90
28947;DHT22;16052;50.930;5.326;2023-04-24T06:58:11;8.60;99.90
28947;DHT22;16052;50.930;5.326;2023-04-24T07:00:37;8.70;99.90
28947;DHT22;16052;50.930;5.326;2023-04-24T07:03:03;8.70;99.90
28947;DHT22;16052;50.930;5.326;2023-04-24T07:05:31;8.70;99.90
28947;DHT22;16052;50.930;5.326;2023-04-24T07:07:56;8.70;99.90
28947;DHT22;16052;50.930;5.326;2023-04-24T07:10:24;8.70;99.90
28947;DHT22;16052;50.930;5.326;2023-04-24T07:12:50;8.70;99.90
28947;DHT22;16052;50.930;5.326;2023-04-24T07:15:15;8.80;99.90
28947;DHT22;16052;50.930;5.326;2023-04-24T07:17:41;8.90;99.90
28947;DHT22;16052;50.930;5.326;2023-04-24T07:20:11;8.90;99.90
28947;DHT22;16052;50.930;5.326;2023-04-24T07:22:40;8.90;99.90
28947;DHT22;16052;50.930;5.326;2023-04-24T07:25:06;9.00;99.90
28947;DHT22;16052;50.930;5.326;2023-04-24T07:27:33;9.00;99.90
28947;DHT22;16052;50.930;5.326;2023-04-24T07:29:59;8.90;99.90
28947;DHT22;16052;50.930;5.326;2023-04-24T07:32:25;8.90;99.90
28947;DHT22;16052;50.930;5.326;2023-04-24T07:34:50;8.90;99.90
28947;DHT22;16052;50.930;5.326;2023-04-24T07:37:16;8.90;99.90
28947;DHT22;16052;50.930;5.326;2023-04-24T07:39:42;8.90;99.90
28947;DHT22;16052;50.930;5.326;2023-04-24T07:42:08;8.80;99.90
28947;DHT22;16052;50.930;5.326;2023-04-24T07:44:33;8.80;99.90
28947;DHT22;16052;50.930;5.326;2023-04-24T07:46:59;8.90;99.90
28947;DHT22;16052;50.930;5.326;2023-04-24T07:49:25;8.90;99.90
28947;DHT22;16052;50.930;5.326;2023-04-24T07:51:51;8.80;99.90
28947;DHT22;16052;50.930;5.326;2023-04-24T07:54:16;8.80;99.90
28947;DHT22;16052;50.930;5.326;2023-04-24T07:56:43;8.90;99.90
28947;DHT22;16052;50.930;5.326;2023-04-24T07:59:10;8.90;99.90
28947;DHT22;16052;50.930;5.326;2023-04-24T08:01:36;8.90;99.90
28947;DHT22;16052;50.930;5.326;2023-04-24T08:04:01;8.90;99.90
28947;DHT22;16052;50.930;5.326;2023-04-24T08:06:27;8.90;99.90
28947;DHT22;16052;50.930;5.326;2023-04-24T08:08:57;8.90;99.90
28947;DHT22;16052;50.930;5.326;2023-04-24T08:11:24;8.80;99.90
28947;DHT22;16052;50.930;5.326;2023-04-24T08:13:50;8.80;99.90
28947;DHT22;16052;50.930;5.326;2023-04-24T08:16:16;8.80;99.90
28947;DHT22;16052;50.930;5.326;2023-04-24T08:18:42;8.90;99.90
28947;DHT22;16052;50.930;5.326;2023-04-24T08:21:08;8.90;99.90
28947;DHT22;16052;50.930;5.326;2023-04-24T08:23:33;8.90;99.90
28947;DHT22;16052;50.930;5.326;2023-04-24T08:25:59;8.90;99.90
28947;DHT22;16052;50.930;5.326;2023-04-24T08:28:25;8.90;99.90
28947;DHT22;16052;50.930;5.326;2023-04-24T08:30:51;9.00;99.90
28947;DHT22;16052;50.930;5.326;2023-04-24T08:33:22;9.10;99.90
28947;DHT22;16052;50.930;5.326;2023-04-24T08:35:48;9.10;99.90
28947;DHT22;16052;50.930;5.326;2023-04-24T08:38:16;9.20;99.90
28947;DHT22;16052;50.930;5.326;2023-04-24T08:40:42;9.20;99.90
28947;DHT22;16052;50.930;5.326;2023-04-24T08:43:09;9.20;99.90
28947;DHT22;16052;50.930;5.326;2023-04-24T08:45:35;9.30;99.90
28947;DHT22;16052;50.930;5.326;2023-04-24T08:48:02;9.30;99.90
28947;DHT22;16052;50.930;5.326;2023-04-24T08:50:28;9.30;99.90
28947;DHT22;16052;50.930;5.326;2023-04-24T08:52:55;9.40;99.90
28947;DHT22;16052;50.930;5.326;2023-04-24T08:55:23;9.50;99.90
28947;DHT22;16052;50.930;5.326;2023-04-24T08:57:51;9.50;99.90
28947;DHT22;16052;50.930;5.326;2023-04-24T09:00:19;9.50;99.90
28947;DHT22;16052;50.930;5.326;2023-04-24T09:02:49;9.50;99.90
28947;DHT22;16052;50.930;5.326;2023-04-24T09:05:16;9.60;99.90
28947;DHT22;16052;50.930;5.326;2023-04-24T09:07:45;9.60;99.90
28947;DHT22;16052;50.930;5.326;2023-04-24T09:10:11;9.40;99.90
28947;DHT22;16052;50.930;5.326;2023-04-24T09:12:38;9.40;99.90
28947;DHT22;16052;50.930;5.326;2023-04-24T09:15:04;9.40;99.90
28947;DHT22;16052;50.930;5.326;2023-04-24T09:17:33;9.30;99.90
28947;DHT22;16052;50.930;5.326;2023-04-24T09:19:59;9.30;99.90
28947;DHT22;16052;50.930;5.326;2023-04-24T09:22:25;9.20;99.90
28947;DHT22;16052;50.930;5.326;2023-04-24T09:25:06;9.20;99.90
28947;DHT22;16052;50.930;5.326;2023-04-24T09:27:33;9.20;99.90
28947;DHT22;16052;50.930;5.326;2023-04-24T09:29:59;9.30;99.90
28947;DHT22;16052;50.930;5.326;2023-04-24T09:32:25;9.40;99.90
28947;DHT22;16052;50.930;5.326;2023-04-24T09:35:11;9.40;99.90
28947;DHT22;16052;50.930;5.326;2023-04-24T09:37:47;9.60;99.90
28947;DHT22;16052;50.930;5.326;2023-04-24T09:40:18;9.70;99.90
28947;DHT22;16052;50.930;5.326;2023-04-24T09:42:55;9.90;99.90
28947;DHT22;16052;50.930;5.326;2023-04-24T09:45:22;9.90;99.90
28947;DHT22;16052;50.930;5.326;2023-04-24T09:47:53;10.00;99.90
28947;DHT22;16052;50.930;5.326;2023-04-24T09:50:22;10.20;99.90
28947;DHT22;16052;50.930;5.326;2023-04-24T09:52:57;10.20;99.90
28947;DHT22;16052;50.930;5.326;2023-04-24T09:55:23;10.30;99.90
28947;DHT22;16052;50.930;5.326;2023-04-24T09:57:59;10.30;99.90
28947;DHT22;16052;50.930;5.326;2023-04-24T10:00:31;10.30;99.90
28947;DHT22;16052;50.930;5.326;2023-04-24T10:03:00;10.40;99.90
28947;DHT22;16052;50.930;5.326;2023-04-24T10:05:32;10.60;99.90
28947;DHT22;16052;50.930;5.326;2023-04-24T10:08:18;10.70;99.90
28947;DHT22;16052;50.930;5.326;2023-04-24T10:10:46;10.80;99.90
28947;DHT22;16052;50.930;5.326;2023-04-24T10:13:13;10.80;99.90
28947;DHT22;16052;50.930;5.326;2023-04-24T10:15:41;10.70;99.90
28947;DHT22;16052;50.930;5.326;2023-04-24T10:18:07;10.70;99.90
28947;DHT22;16052;50.930;5.326;2023-04-24T10:20:37;10.80;99.90
28947;DHT22;16052;50.930;5.326;2023-04-24T10:23:04;10.90;99.90
28947;DHT22;16052;50.930;5.326;2023-04-24T10:25:33;11.00;99.90
28947;DHT22;16052;50.930;5.326;2023-04-24T10:28:00;10.90;99.90
28947;DHT22;16052;50.930;5.326;2023-04-24T10:30:28;10.90;99.90
28947;DHT22;16052;50.930;5.326;2023-04-24T10:32:55;10.90;99.90
28947;DHT22;16052;50.930;5.326;2023-04-24T10:35:22;10.90;99.90
28947;DHT22;16052;50.930;5.326;2023-04-24T10:37:56;10.80;99.90
28947;DHT22;16052;50.930;5.326;2023-04-24T10:40:42;10.90;99.90
28947;DHT22;16052;50.930;5.326;2023-04-24T10:43:08;10.90;99.90
28947;DHT22;16052;50.930;5.326;2023-04-24T10:45:36;11.00;99.90
28947;DHT22;16052;50.930;5.326;2023-04-24T10:48:07;11.10;99.90
28947;DHT22;16052;50.930;5.326;2023-04-24T10:51:00;11.00;99.90
28947;DHT22;16052;50.930;5.326;2023-04-24T10:53:30;10.90;99.90
28947;DHT22;16052;50.930;5.326;2023-04-24T10:56:06;10.90;99.90
28947;DHT22;16052;50.930;5.326;2023-04-24T10:58:41;11.00;99.90
28947;DHT22;16052;50.930;5.326;2023-04-24T11:03:59;11.10;99.90
28947;DHT22;16052;50.930;5.326;2023-04-24T11:06:36;11.20;99.90
28947;DHT22;16052;50.930;5.326;2023-04-24T11:09:09;11.10;99.90
28947;DHT22;16052;50.930;5.326;2023-04-24T11:11:43;11.10;99.40
28947;DHT22;16052;50.930;5.326;2023-04-24T11:14:09;11.10;95.80
28947;DHT22;16052;50.930;5.326;2023-04-24T11:16:45;11.00;95.10
28947;DHT22;16052;50.930;5.326;2023-04-24T11:19:21;10.90;94.70
28947;DHT22;16052;50.930;5.326;2023-04-24T11:24:39;10.90;99.70
28947;DHT22;16052;50.930;5.326;2023-04-24T11:27:06;11.00;99.90
28947;DHT22;16052;50.930;5.326;2023-04-24T11:29:44;11.10;91.90
28947;DHT22;16052;50.930;5.326;2023-04-24T11:34:59;11.00;77.30
28947;DHT22;16052;50.930;5.326;2023-04-24T11:40:01;11.20;68.90
28947;DHT22;16052;50.930;5.326;2023-04-24T11:42:28;11.20;58.00
28947;DHT22;16052;50.930;5.326;2023-04-24T11:44:55;11.10;46.60
28947;DHT22;16052;50.930;5.326;2023-04-24T11:47:32;11.30;57.30
28947;DHT22;16052;50.930;5.326;2023-04-24T11:49:59;11.50;62.20
28947;DHT22;16052;50.930;5.326;2023-04-24T11:52:29;11.60;61.50
28947;DHT22;16052;50.930;5.326;2023-04-24T11:54:55;11.80;61.50
28947;DHT22;16052;50.930;5.326;2023-04-24T11:57:23;11.90;56.50
28947;DHT22;16052;50.930;5.326;2023-04-24T11:59:49;11.80;55.00
28947;DHT22;16052;50.930;5.326;2023-04-24T12:02:25;11.70;52.30
28947;DHT22;16052;50.930;5.326;2023-04-24T12:04:55;11.70;48.70
28947;DHT22;16052;50.930;5.326;2023-04-24T12:07:22;11.70;50.60
28947;DHT22;16052;50.930;5.326;2023-04-24T12:09:56;11.60;55.80
28947;DHT22;16052;50.930;5.326;2023-04-24T12:12:24;11.80;58.50
28947;DHT22;16052;50.930;5.326;2023-04-24T12:14:58;11.90;50.80
28947;DHT22;16052;50.930;5.326;2023-04-24T12:17:34;11.80;12.70
28947;DHT22;16052;50.930;5.326;2023-04-24T12:20:05;11.60;2.90
28947;DHT22;16052;50.930;5.326;2023-04-24T12:22:53;11.60;15.20
28947;DHT22;16052;50.930;5.326;2023-04-24T12:25:54;11.60;10.20
28947;DHT22;16052;50.930;5.326;2023-04-24T12:28:13;11.70;4.50
28947;DHT22;16052;50.930;5.326;2023-04-24T12:30:48;11.70;6.10
28947;DHT22;16052;50.930;5.326;2023-04-24T12:33:21;11.80;13.50
28947;DHT22;16052;50.930;5.326;2023-04-24T12:35:50;11.90;15.20
28947;DHT22;16052;50.930;5.326;2023-04-24T12:38:16;11.90;13.10
28947;DHT22;16052;50.930;5.326;2023-04-24T12:40:46;11.90;17.20
28947;DHT22;16052;50.930;5.326;2023-04-24T12:43:16;11.90;19.40
28947;DHT22;16052;50.930;5.326;2023-04-24T12:45:42;12.00;24.30
28947;DHT22;16052;50.930;5.326;2023-04-24T12:48:07;12.10;30.10
28947;DHT22;16052;50.930;5.326;2023-04-24T12:50:33;12.20;10.40
28947;DHT22;16052;50.930;5.326;2023-04-24T12:52:59;12.10;1.00
28947;DHT22;16052;50.930;5.326;2023-04-24T12:55:25;12.10;1.00
28947;DHT22;16052;50.930;5.326;2023-04-24T12:57:51;12.10;13.40
28947;DHT22;16052;50.930;5.326;2023-04-24T13:00:17;12.20;16.10
28947;DHT22;16052;50.930;5.326;2023-04-24T13:02:43;12.30;14.40
28947;DHT22;16052;50.930;5.326;2023-04-24T13:05:08;12.40;15.00
28947;DHT22;16052;50.930;5.326;2023-04-24T13:07:34;12.50;10.50
28947;DHT22;16052;50.930;5.326;2023-04-24T13:10:01;12.30;18.30
28947;DHT22;16052;50.930;5.326;2023-04-24T13:12:27;12.50;14.60
28947;DHT22;16052;50.930;5.326;2023-04-24T13:14:53;12.50;18.00
28947;DHT22;16052;50.930;5.326;2023-04-24T13:17:19;12.50;13.90
28947;DHT22;16052;50.930;5.326;2023-04-24T13:19:44;12.40;13.20
28947;DHT22;16052;50.930;5.326;2023-04-24T13:22:12;12.50;18.10
28947;DHT22;16052;50.930;5.326;2023-04-24T13:24:38;12.70;9.60
28947;DHT22;16052;50.930;5.326;2023-04-24T13:27:06;12.70;6.30
28947;DHT22;16052;50.930;5.326;2023-04-24T13:29:32;12.70;10.00
28947;DHT22;16052;50.930;5.326;2023-04-24T13:31:57;12.80;13.80
28947;DHT22;16052;50.930;5.326;2023-04-24T13:34:24;12.90;7.50
28947;DHT22;16052;50.930;5.326;2023-04-24T13:36:55;13.10;9.50
28947;DHT22;16052;50.930;5.326;2023-04-24T13:39:21;13.30;4.10
28947;DHT22;16052;50.930;5.326;2023-04-24T13:41:47;13.40;8.60
28947;DHT22;16052;50.930;5.326;2023-04-24T13:44:14;13.50;3.50
28947;DHT22;16052;50.930;5.326;2023-04-24T13:46:41;13.60;1.00
28947;DHT22;16052;50.930;5.326;2023-04-24T13:49:06;13.60;1.00
28947;DHT22;16052;50.930;5.326;2023-04-24T13:51:32;13.70;1.00
28947;DHT22;16052;50.930;5.326;2023-04-24T13:53:58;13.60;1.00
28947;DHT22;16052;50.930;5.326;2023-04-24T13:56:26;13.30;1.00
28947;DHT22;16052;50.930;5.326;2023-04-24T13:58:51;13.30;1.00
28947;DHT22;16052;50.930;5.326;2023-04-24T14:01:18;13.00;1.00
28947;DHT22;16052;50.930;5.326;2023-04-24T14:03:44;12.80;1.00
28947;DHT22;16052;50.930;5.326;2023-04-24T14:06:12;12.70;1.00
28947;DHT22;16052;50.930;5.326;2023-04-24T14:08:38;12.80;1.00
28947;DHT22;16052;50.930;5.326;2023-04-24T14:11:04;12.80;1.00
28947;DHT22;16052;50.930;5.326;2023-04-24T14:13:30;12.80;1.00
28947;DHT22;16052;50.930;5.326;2023-04-24T14:15:55;12.70;1.00
28947;DHT22;16052;50.930;5.326;2023-04-24T14:18:21;12.60;1.00
28947;DHT22;16052;50.930;5.326;2023-04-24T14:20:47;12.50;1.00
28947;DHT22;16052;50.930;5.326;2023-04-24T14:23:12;12.70;1.00
28947;DHT22;16052;50.930;5.326;2023-04-24T14:25:38;12.70;1.00
28947;DHT22;16052;50.930;5.326;2023-04-24T14:28:05;12.90;1.00
28947;DHT22;16052;50.930;5.326;2023-04-24T14:30:31;13.20;1.00
28947;DHT22;16052;50.930;5.326;2023-04-24T14:32:57;13.50;1.00
28947;DHT22;16052;50.930;5.326;2023-04-24T14:35:23;13.60;1.00
28947;DHT22;16052;50.930;5.326;2023-04-24T14:37:48;13.80;1.00
28947;DHT22;16052;50.930;5.326;2023-04-24T14:40:14;13.90;1.00
28947;DHT22;16052;50.930;5.326;2023-04-24T14:42:40;13.90;1.00
28947;DHT22;16052;50.930;5.326;2023-04-24T14:45:06;14.10;1.00
28947;DHT22;16052;50.930;5.326;2023-04-24T14:47:33;14.30;1.00
28947;DHT22;16052;50.930;5.326;2023-04-24T14:49:59;14.30;1.00
28947;DHT22;16052;50.930;5.326;2023-04-24T14:52:25;14.20;1.00
28947;DHT22;16052;50.930;5.326;2023-04-24T14:54:50;14.10;1.00
28947;DHT22;16052;50.930;5.326;2023-04-24T14:57:16;13.80;1.00
28947;DHT22;16052;50.930;5.326;2023-04-24T14:59:43;13.60;1.00
28947;DHT22;16052;50.930;5.326;2023-04-24T15:02:08;13.70;1.00
28947;DHT22;16052;50.930;5.326;2023-04-24T15:04:34;13.80;1.00
28947;DHT22;16052;50.930;5.326;2023-04-24T15:07:00;13.70;1.00
28947;DHT22;16052;50.930;5.326;2023-04-24T15:09:26;13.70;1.00
28947;DHT22;16052;50.930;5.326;2023-04-24T15:11:52;13.80;1.00
28947;DHT22;16052;50.930;5.326;2023-04-24T15:14:18;14.00;1.00
28947;DHT22;16052;50.930;5.326;2023-04-24T15:16:44;13.70;1.00
28947;DHT22;16052;50.930;5.326;2023-04-24T15:19:10;13.40;1.00
28947;DHT22;16052;50.930;5.326;2023-04-24T15:21:37;13.20;1.00
28947;DHT22;16052;50.930;5.326;2023-04-24T15:24:06;13.20;1.00
28947;DHT22;16052;50.930;5.326;2023-04-24T15:26:32;13.30;1.00
28947;DHT22;16052;50.930;5.326;2023-04-24T15:28:57;13.50;1.00
28947;DHT22;16052;50.930;5.326;2023-04-24T15:31:23;13.50;1.00
28947;DHT22;16052;50.930;5.326;2023-04-24T15:33:49;13.70;1.00
28947;DHT22;16052;50.930;5.326;2023-04-24T15:36:16;13.70;1.00
28947;DHT22;16052;50.930;5.326;2023-04-24T15:38:43;13.50;1.00
28947;DHT22;16052;50.930;5.326;2023-04-24T15:41:09;13.40;1.00
28947;DHT22;16052;50.930;5.326;2023-04-24T15:43:35;13.30;1.00
28947;DHT22;16052;50.930;5.326;2023-04-24T15:46:01;13.30;1.00
28947;DHT22;16052;50.930;5.326;2023-04-24T15:48:30;13.40;1.00
28947;DHT22;16052;50.930;5.326;2023-04-24T15:50:56;13.50;1.00